createdAt,value
2019-03-09T00:02:26.777Z,4.70
2019-03-09T00:05:02.533Z,4.80
2019-03-09T00:07:32.430Z,5.00
2019-03-09T00:10:00.959Z,4.90
2019-03-09T00:12:29.493Z,4.90
2019-03-09T00:15:00.795Z,5.00
2019-03-09T00:17:29.347Z,5.00
2019-03-09T00:20:02.477Z,5.00
2019-03-09T00:23:02.555Z,5.00
2019-03-09T00:25:35.919Z,5.00
2019-03-09T00:28:22.621Z,5.10
2019-03-09T00:30:56.461Z,5.10
2019-03-09T00:33:24.999Z,5.10
2019-03-09T00:35:53.541Z,5.10
2019-03-09T00:38:23.223Z,5.10
2019-03-09T00:40:51.770Z,5.20
2019-03-09T00:43:20.291Z,5.20
2019-03-09T00:45:53.084Z,5.20
2019-03-09T00:48:21.615Z,5.20
2019-03-09T00:50:50.152Z,5.10
2019-03-09T00:53:22.336Z,5.20
2019-03-09T00:55:50.861Z,5.20
2019-03-09T00:58:22.173Z,5.30
2019-03-09T01:00:50.698Z,5.30
2019-03-09T01:03:19.324Z,5.30
2019-03-09T01:05:51.928Z,5.50
2019-03-09T01:08:20.829Z,5.50
2019-03-09T01:10:49.322Z,5.50
2019-03-09T01:13:20.643Z,5.60
2019-03-09T01:15:50.760Z,5.60
2019-03-09T01:18:19.225Z,5.60
2019-03-09T01:20:52.131Z,5.60
2019-03-09T01:23:20.599Z,5.70
2019-03-09T01:25:49.721Z,5.70
2019-03-09T01:28:21.900Z,5.80
2019-03-09T01:30:50.354Z,5.90
2019-03-09T01:33:18.804Z,5.90
2019-03-09T01:35:50.958Z,5.90
2019-03-09T01:38:19.495Z,5.90
2019-03-09T01:40:48.045Z,5.90
2019-03-09T01:43:18.942Z,5.90
2019-03-09T01:45:50.718Z,5.90
2019-03-09T01:48:19.243Z,5.90
2019-03-09T01:50:52.693Z,6.00
2019-03-09T01:53:21.159Z,5.90
2019-03-09T01:55:52.989Z,5.90
2019-03-09T01:58:23.367Z,5.90
2019-03-09T02:00:51.830Z,5.80
2019-03-09T02:03:21.881Z,5.80
2019-03-09T02:05:50.419Z,5.80
2019-03-09T02:08:21.703Z,5.80
2019-03-09T02:10:50.168Z,5.80
2019-03-09T02:13:21.556Z,5.80
2019-03-09T02:15:51.574Z,5.80
2019-03-09T02:18:20.033Z,5.80
2019-03-09T02:20:52.837Z,5.80
2019-03-09T02:23:21.297Z,5.80
2019-03-09T02:25:53.380Z,5.80
2019-03-09T02:28:24.323Z,5.90
2019-03-09T02:30:52.787Z,5.90
2019-03-09T02:33:22.518Z,5.90
2019-03-09T02:35:50.976Z,5.90
2019-03-09T02:38:24.186Z,5.90
2019-03-09T02:40:55.042Z,5.90
2019-03-09T02:43:23.497Z,6.00
2019-03-09T02:45:51.962Z,6.10
2019-03-09T02:48:25.616Z,6.20
2019-03-09T02:50:57.019Z,6.30
2019-03-09T02:53:26.633Z,6.30
2019-03-09T02:55:57.423Z,6.30
2019-03-09T02:58:25.953Z,6.40
2019-03-09T03:01:15.877Z,6.40
2019-03-09T03:03:44.414Z,6.40
2019-03-09T03:06:12.928Z,6.50
2019-03-09T03:08:44.812Z,6.50
2019-03-09T03:11:13.343Z,6.60
2019-03-09T03:13:46.501Z,6.60
2019-03-09T03:16:15.034Z,6.60
2019-03-09T03:18:43.571Z,6.70
2019-03-09T03:21:15.539Z,6.60
2019-03-09T03:23:44.061Z,6.60
2019-03-09T03:26:16.601Z,6.60
2019-03-09T03:28:51.020Z,6.60
2019-03-09T03:31:19.544Z,6.60
2019-03-09T03:33:50.338Z,6.70
2019-03-09T03:36:18.788Z,6.70
2019-03-09T03:38:47.251Z,6.70
2019-03-09T03:41:16.812Z,6.70
2019-03-09T03:43:45.422Z,6.80
2019-03-09T03:46:13.892Z,6.70
2019-03-09T03:48:46.868Z,6.80
2019-03-09T03:51:15.329Z,6.80
2019-03-09T03:53:46.722Z,6.80
2019-03-09T03:56:18.686Z,6.70
2019-03-09T03:58:48.817Z,6.80
2019-03-09T04:01:17.358Z,6.80
2019-03-09T04:03:47.309Z,6.80
2019-03-09T04:06:17.648Z,6.90
2019-03-09T04:08:46.278Z,6.90
2019-03-09T04:11:15.251Z,6.90
2019-03-09T04:13:45.342Z,6.90
2019-03-09T04:16:16.718Z,6.90
2019-03-09T04:18:45.245Z,6.90
2019-03-09T04:21:15.720Z,6.90
2019-03-09T04:23:43.468Z,6.90
2019-03-09T04:26:13.515Z,6.90
2019-03-09T04:28:43.614Z,6.90
2019-03-09T04:31:14.250Z,6.90
2019-03-09T04:33:42.845Z,6.90
2019-03-09T04:36:16.042Z,7.00
2019-03-09T04:38:44.567Z,6.90
2019-03-09T04:41:13.031Z,6.90
2019-03-09T04:43:44.859Z,6.90
2019-03-09T04:46:18.265Z,6.90
2019-03-09T04:48:46.802Z,6.90
2019-03-09T04:51:20.666Z,6.90
2019-03-09T04:53:49.125Z,6.90
2019-03-09T04:56:18.249Z,6.90
2019-03-09T04:58:49.389Z,6.90
2019-03-09T05:01:17.849Z,6.90
2019-03-09T05:03:54.543Z,6.90
2019-03-09T05:06:22.996Z,7.00
2019-03-09T05:09:00.302Z,6.90
2019-03-09T05:11:28.766Z,6.90
2019-03-09T05:14:02.816Z,6.90
2019-03-09T05:16:32.224Z,7.00
2019-03-09T05:19:00.681Z,7.10
2019-03-09T05:21:33.287Z,7.00
2019-03-09T05:24:01.749Z,7.00
2019-03-09T05:26:31.167Z,7.00
2019-03-09T05:29:02.414Z,7.10
2019-03-09T05:31:33.563Z,7.00
2019-03-09T05:34:02.012Z,7.00
2019-03-09T05:36:30.467Z,7.00
2019-03-09T05:39:01.400Z,7.00
2019-03-09T05:41:29.936Z,7.00
2019-03-09T05:43:58.383Z,7.00
2019-03-09T05:46:29.387Z,7.00
2019-03-09T05:49:01.054Z,7.00
2019-03-09T05:51:33.745Z,7.00
2019-03-09T05:54:02.270Z,7.00
2019-03-09T05:56:33.709Z,7.00
2019-03-09T05:59:02.165Z,7.00
2019-03-09T06:01:30.630Z,7.00
2019-03-09T06:04:01.577Z,7.10
2019-03-09T06:06:30.045Z,7.00
2019-03-09T06:08:58.576Z,6.90
2019-03-09T06:11:33.249Z,6.90
2019-03-09T06:14:05.671Z,7.00
2019-03-09T06:16:37.633Z,7.00
2019-03-09T06:19:06.084Z,6.90
2019-03-09T06:21:35.088Z,6.90
2019-03-09T06:24:06.153Z,6.90
2019-03-09T06:26:34.685Z,6.80
2019-03-09T06:29:04.554Z,6.80
2019-03-09T06:31:35.091Z,6.70
2019-03-09T06:34:02.774Z,6.70
2019-03-09T06:36:45.565Z,6.70
2019-03-09T06:39:14.025Z,6.60
2019-03-09T06:41:49.901Z,6.60
2019-03-09T06:44:18.361Z,6.60
2019-03-09T06:46:46.812Z,6.50
2019-03-09T06:49:17.513Z,6.50
2019-03-09T06:51:46.053Z,6.50
2019-03-09T06:54:14.583Z,6.50
2019-03-09T06:56:44.713Z,6.50
2019-03-09T06:59:15.246Z,6.40
2019-03-09T07:01:46.891Z,6.40
2019-03-09T07:04:15.417Z,6.40
2019-03-09T07:06:43.872Z,6.40
2019-03-09T07:09:14.205Z,6.40
2019-03-09T07:11:41.957Z,6.30
2019-03-09T07:14:48.206Z,6.30
2019-03-09T07:17:20.161Z,6.30
2019-03-09T07:19:56.025Z,6.40
2019-03-09T07:22:29.113Z,6.30
2019-03-09T07:24:57.571Z,6.30
2019-03-09T07:27:27.203Z,6.30
2019-03-09T07:29:55.697Z,6.30
2019-03-09T07:32:24.237Z,6.30
2019-03-09T07:34:54.917Z,6.30
2019-03-09T07:37:25.856Z,6.30
2019-03-09T07:39:54.328Z,6.30
2019-03-09T07:42:22.784Z,6.30
2019-03-09T07:44:51.637Z,6.40
2019-03-09T07:47:20.181Z,6.40
2019-03-09T07:49:48.725Z,6.50
2019-03-09T07:52:38.342Z,6.50
2019-03-09T07:55:15.925Z,6.50
2019-03-09T07:57:47.406Z,6.60
2019-03-09T08:00:18.280Z,6.70
2019-03-09T08:02:48.781Z,6.80
2019-03-09T08:05:16.555Z,6.90
2019-03-09T08:07:45.227Z,6.90
2019-03-09T08:10:21.940Z,6.90
2019-03-09T08:12:50.507Z,6.90
2019-03-09T08:15:22.999Z,6.90
2019-03-09T08:17:57.791Z,6.90
2019-03-09T08:20:26.257Z,7.00
2019-03-09T08:22:58.156Z,7.00
2019-03-09T08:25:26.613Z,7.10
2019-03-09T08:27:55.064Z,7.10
2019-03-09T08:30:31.683Z,7.20
2019-03-09T08:33:00.160Z,7.20
2019-03-09T08:35:31.140Z,7.20
2019-03-09T08:38:00.832Z,7.30
2019-03-09T08:40:29.383Z,7.40
2019-03-09T08:43:00.659Z,7.40
2019-03-09T08:45:29.134Z,7.50
2019-03-09T08:47:57.656Z,7.60
2019-03-09T08:50:28.785Z,7.70
2019-03-09T08:52:57.323Z,7.70
2019-03-09T08:55:29.357Z,7.60
2019-03-09T08:57:57.867Z,7.50
2019-03-09T09:00:31.691Z,7.50
2019-03-09T09:03:02.768Z,7.50
2019-03-09T09:05:31.467Z,7.40
2019-03-09T09:08:00.057Z,7.40
2019-03-09T09:10:30.983Z,7.40
2019-03-09T09:12:59.527Z,7.40
2019-03-09T09:15:31.545Z,7.40
2019-03-09T09:18:02.895Z,7.40
2019-03-09T09:20:31.430Z,7.30
2019-03-09T09:23:00.995Z,7.30
2019-03-09T09:25:29.439Z,7.20
2019-03-09T09:27:57.901Z,7.30
2019-03-09T09:30:30.279Z,7.40
2019-03-09T09:33:01.092Z,7.60
2019-03-09T09:35:29.684Z,7.70
2019-03-09T09:37:58.149Z,8.00
2019-03-09T09:40:28.697Z,8.10
2019-03-09T09:42:56.419Z,8.30
2019-03-09T09:45:25.194Z,8.40
2019-03-09T09:47:55.472Z,8.60
2019-03-09T09:50:24.062Z,8.80
2019-03-09T09:52:52.600Z,8.90
2019-03-09T09:55:22.039Z,9.00
2019-03-09T09:57:54.527Z,9.00
2019-03-09T10:00:25.974Z,9.00
2019-03-09T10:02:56.815Z,9.10
2019-03-09T10:05:25.874Z,9.10
2019-03-09T10:07:54.340Z,9.10
2019-03-09T10:10:26.983Z,9.20
2019-03-09T10:12:56.092Z,9.20
2019-03-09T10:15:27.173Z,9.40
2019-03-09T10:17:56.003Z,9.50
2019-03-09T10:20:30.016Z,9.70
2019-03-09T10:23:04.670Z,9.80
2019-03-09T10:25:31.770Z,10.00
2019-03-09T10:28:02.550Z,10.10
2019-03-09T10:30:31.113Z,10.20
2019-03-09T10:33:02.591Z,10.20
2019-03-09T10:35:34.045Z,10.20
2019-03-09T10:38:02.577Z,10.20
2019-03-09T10:40:32.394Z,10.10
2019-03-09T10:43:32.734Z,10.20
2019-03-09T10:45:40.980Z,10.30
2019-03-09T10:48:09.517Z,10.40
2019-03-09T10:50:39.998Z,10.40
2019-03-09T10:53:07.762Z,10.40
2019-03-09T10:55:36.233Z,10.40
2019-03-09T10:58:07.285Z,10.40
2019-03-09T11:00:40.687Z,10.30
2019-03-09T11:03:12.755Z,10.30
2019-03-09T11:05:41.293Z,10.30
2019-03-09T11:08:09.889Z,10.30
2019-03-09T11:10:40.061Z,10.30
2019-03-09T11:13:09.975Z,10.30
2019-03-09T11:15:38.429Z,10.30
2019-03-09T11:18:08.474Z,10.40
2019-03-09T11:20:40.543Z,10.40
2019-03-09T11:23:08.996Z,10.40
2019-03-09T11:25:39.357Z,10.30
2019-03-09T11:28:09.664Z,10.40
2019-03-09T11:30:40.853Z,10.50
2019-03-09T11:36:05.726Z,10.50
2019-03-09T11:38:34.194Z,10.40
2019-03-09T11:41:02.655Z,10.40
2019-03-09T11:43:32.625Z,10.40
2019-03-09T11:46:01.079Z,10.40
2019-03-09T11:48:29.545Z,10.40
2019-03-09T11:51:00.939Z,10.50
2019-03-09T11:53:29.394Z,10.70
2019-03-09T11:56:01.073Z,10.70
2019-03-09T11:58:29.528Z,10.70
2019-03-09T12:00:57.995Z,10.70
2019-03-09T12:03:27.987Z,10.70
2019-03-09T12:05:56.446Z,10.80
2019-03-09T12:08:24.911Z,11.00
2019-03-09T12:10:57.216Z,11.20
2019-03-09T12:13:30.288Z,11.20
2019-03-09T12:15:59.372Z,11.30
2019-03-09T12:18:32.705Z,11.20
2019-03-09T12:21:01.173Z,11.20
2019-03-09T12:23:31.369Z,11.20
2019-03-09T12:25:59.845Z,11.40
2019-03-09T12:28:33.401Z,11.50
2019-03-09T12:31:01.932Z,11.70
2019-03-09T12:33:30.392Z,11.90
2019-03-09T12:36:01.325Z,12.20
2019-03-09T12:38:29.883Z,12.10
2019-03-09T12:40:58.404Z,12.00
2019-03-09T12:43:28.816Z,11.90
2019-03-09T12:45:56.499Z,11.80
2019-03-09T12:48:26.992Z,11.60
2019-03-09T12:50:57.843Z,11.50
2019-03-09T12:53:26.306Z,11.50
2019-03-09T12:55:59.319Z,11.40
2019-03-09T12:58:27.783Z,11.40
2019-03-09T13:00:58.354Z,11.40
2019-03-09T13:03:27.865Z,11.40
2019-03-09T13:05:56.412Z,11.60
2019-03-09T13:08:28.405Z,11.50
2019-03-09T13:10:56.914Z,11.50
2019-03-09T13:13:25.457Z,11.50
2019-03-09T13:15:58.644Z,11.50
2019-03-09T13:18:28.683Z,11.50
2019-03-09T13:20:57.139Z,11.50
2019-03-09T13:23:27.923Z,11.50
2019-03-09T13:25:56.466Z,11.50
2019-03-09T13:28:24.991Z,11.50
2019-03-09T13:30:56.136Z,11.50
2019-03-09T13:33:24.609Z,11.50
2019-03-09T13:35:56.560Z,11.60
2019-03-09T13:38:27.319Z,11.60
2019-03-09T13:41:00.302Z,11.60
2019-03-09T13:43:28.837Z,11.60
2019-03-09T13:46:01.782Z,11.60
2019-03-09T13:48:30.250Z,11.70
2019-03-09T13:50:58.776Z,11.70
2019-03-09T13:53:30.722Z,11.80
2019-03-09T13:55:59.194Z,11.70
2019-03-09T13:58:27.719Z,11.70
2019-03-09T14:00:56.963Z,11.70
2019-03-09T14:03:25.503Z,11.70
2019-03-09T14:05:54.027Z,11.60
2019-03-09T14:08:23.876Z,11.60
2019-03-09T14:10:55.124Z,11.60
2019-03-09T14:13:23.627Z,11.50
2019-03-09T14:15:54.057Z,11.50
2019-03-09T14:18:21.776Z,11.60
2019-03-09T14:20:50.236Z,12.00
2019-03-09T14:23:18.773Z,12.30
2019-03-09T14:25:50.749Z,12.40
2019-03-09T14:28:19.280Z,12.40
2019-03-09T14:30:47.735Z,12.20
2019-03-09T14:33:21.223Z,12.20
2019-03-09T14:35:50.871Z,12.00
2019-03-09T14:38:21.873Z,11.90
2019-03-09T14:40:53.731Z,11.80
2019-03-09T14:43:22.883Z,11.50
2019-03-09T14:45:53.680Z,11.30
2019-03-09T14:48:22.234Z,11.20
2019-03-09T14:50:50.759Z,11.10
2019-03-09T14:53:22.401Z,11.00
2019-03-09T14:55:50.865Z,10.80
2019-03-09T14:58:19.336Z,10.80
2019-03-09T15:00:51.140Z,11.00
2019-03-09T15:03:19.605Z,11.30
2019-03-09T15:05:50.248Z,11.40
2019-03-09T15:08:22.327Z,11.30
2019-03-09T15:10:50.860Z,11.20
2019-03-09T15:13:23.185Z,11.10
2019-03-09T15:15:56.883Z,11.00
2019-03-09T15:18:25.349Z,10.90
2019-03-09T15:20:57.436Z,10.80
2019-03-09T15:23:25.905Z,10.70
2019-03-09T15:25:56.454Z,10.70
2019-03-09T15:28:24.979Z,10.60
2019-03-09T15:30:54.861Z,10.60
2019-03-09T15:33:23.316Z,10.50
2019-03-09T15:35:54.389Z,10.20
2019-03-09T15:38:26.961Z,10.00
2019-03-09T15:40:59.646Z,9.80
2019-03-09T15:43:28.182Z,9.60
2019-03-09T15:45:56.703Z,9.50
2019-03-09T15:48:28.987Z,9.50
2019-03-09T15:50:57.522Z,9.40
2019-03-09T15:53:26.055Z,9.40
2019-03-09T15:55:55.250Z,9.40
2019-03-09T15:58:23.721Z,9.30
2019-03-09T16:00:52.264Z,9.30
2019-03-09T16:03:22.759Z,9.30
2019-03-09T16:05:50.430Z,9.20
2019-03-09T16:08:22.304Z,9.20
2019-03-09T16:10:54.260Z,9.20
2019-03-09T16:13:27.340Z,9.20
2019-03-09T16:15:56.771Z,9.10
2019-03-09T16:18:27.926Z,9.10
2019-03-09T16:20:56.439Z,9.10
2019-03-09T16:23:24.893Z,9.20
2019-03-09T16:25:59.708Z,9.30
2019-03-09T16:28:28.230Z,9.30
2019-03-09T16:30:56.690Z,9.30
2019-03-09T16:33:26.596Z,9.20
2019-03-09T16:35:55.043Z,9.10
2019-03-09T16:38:27.148Z,9.00
2019-03-09T16:41:01.156Z,8.90
2019-03-09T16:43:29.694Z,8.80
2019-03-09T16:45:58.227Z,8.60
2019-03-09T16:48:28.045Z,8.30
2019-03-09T16:50:56.507Z,8.00
2019-03-09T16:53:24.961Z,7.80
2019-03-09T16:55:55.546Z,7.70
2019-03-09T16:58:24.081Z,7.60
2019-03-09T17:00:52.933Z,7.50
2019-03-09T17:03:23.982Z,7.50
2019-03-09T17:05:52.503Z,7.40
2019-03-09T17:08:20.955Z,7.30
2019-03-09T17:10:53.616Z,7.30
2019-03-09T17:13:22.081Z,7.20
2019-03-09T17:15:56.217Z,7.10
2019-03-09T17:18:24.669Z,7.00
2019-03-09T17:20:53.195Z,7.00
2019-03-09T17:23:24.436Z,7.00
2019-03-09T17:25:52.968Z,6.90
2019-03-09T17:28:21.417Z,6.90
2019-03-09T17:30:51.715Z,6.90
2019-03-09T17:33:20.170Z,6.90
2019-03-09T17:35:48.683Z,6.90
2019-03-09T17:38:17.158Z,6.90
2019-03-09T17:40:46.716Z,6.90
2019-03-09T17:43:18.680Z,6.90
2019-03-09T17:45:47.217Z,6.90
2019-03-09T17:48:15.668Z,6.90
2019-03-09T17:50:48.106Z,6.90
2019-03-09T17:53:16.565Z,6.80
2019-03-09T17:55:45.083Z,6.90
2019-03-09T17:58:14.498Z,6.80
2019-03-09T18:00:46.991Z,6.80
2019-03-09T18:03:16.258Z,6.80
2019-03-09T18:05:44.727Z,6.80
2019-03-09T18:08:13.243Z,6.80
2019-03-09T18:10:57.175Z,6.80
2019-03-09T18:13:25.716Z,6.70
2019-03-09T18:15:58.960Z,6.70
2019-03-09T18:18:27.418Z,6.70
2019-03-09T18:20:55.956Z,6.70
2019-03-09T18:23:25.020Z,6.60
2019-03-09T18:25:53.480Z,6.60
2019-03-09T18:28:24.143Z,6.60
2019-03-09T18:30:56.614Z,6.60
2019-03-09T18:33:25.063Z,6.60
2019-03-09T18:35:55.653Z,6.50
2019-03-09T18:38:24.114Z,6.50
2019-03-09T18:40:55.463Z,6.50
2019-03-09T18:43:28.588Z,6.40
2019-03-09T18:46:00.745Z,6.40
2019-03-09T18:48:29.268Z,6.40
2019-03-09T18:51:01.690Z,6.40
2019-03-09T18:53:30.148Z,6.40
2019-03-09T18:55:59.567Z,6.30
2019-03-09T18:58:32.783Z,6.30
2019-03-09T19:01:01.242Z,6.30
2019-03-09T19:03:29.781Z,6.30
2019-03-09T19:06:00.801Z,6.40
2019-03-09T19:08:29.262Z,6.40
2019-03-09T19:11:00.110Z,6.30
2019-03-09T19:13:30.054Z,6.30
2019-03-09T19:16:00.667Z,6.40
2019-03-09T19:18:35.287Z,6.40
2019-03-09T19:21:03.735Z,6.40
2019-03-09T19:23:32.189Z,6.40
2019-03-09T19:26:03.830Z,6.40
2019-03-09T19:28:33.119Z,6.40
2019-03-09T19:31:01.581Z,6.40
2019-03-09T19:33:31.444Z,6.40
2019-03-09T19:35:59.973Z,6.50
2019-03-09T19:38:28.425Z,6.50
2019-03-09T19:40:57.501Z,6.50
2019-03-09T19:43:25.962Z,6.50
2019-03-09T19:45:56.221Z,6.50
2019-03-09T19:48:24.748Z,6.50
2019-03-09T19:50:53.268Z,6.50
2019-03-09T19:53:22.326Z,6.60
2019-03-09T19:55:53.964Z,6.60
2019-03-09T19:58:22.468Z,6.60
2019-03-09T20:00:50.929Z,6.60
2019-03-09T20:03:21.943Z,6.60
2019-03-09T20:05:50.572Z,6.70
2019-03-09T20:08:19.090Z,6.70
2019-03-09T20:10:49.965Z,6.80
2019-03-09T20:13:18.420Z,6.80
2019-03-09T20:15:52.243Z,6.80
2019-03-09T20:18:20.752Z,6.80
2019-03-09T20:20:49.198Z,6.90
2019-03-09T20:23:19.045Z,6.90
2019-03-09T20:25:47.508Z,6.90
2019-03-09T20:28:18.556Z,7.00
2019-03-09T20:30:50.445Z,7.10
2019-03-09T20:33:18.981Z,7.10
2019-03-09T20:35:47.441Z,7.10
2019-03-09T20:38:18.766Z,7.10
2019-03-09T20:40:51.111Z,7.00
2019-03-09T20:43:26.166Z,7.00
2019-03-09T20:45:54.620Z,7.00
2019-03-09T20:48:24.568Z,7.00
2019-03-09T20:50:55.091Z,6.90
2019-03-09T20:53:23.555Z,6.90
2019-03-09T20:55:55.551Z,6.90
2019-03-09T20:58:24.080Z,6.80
2019-03-09T21:00:55.076Z,6.80
2019-03-09T21:03:23.616Z,6.80
2019-03-09T21:05:55.528Z,6.90
2019-03-09T21:08:28.531Z,6.90
2019-03-09T21:11:03.874Z,6.90
2019-03-09T21:13:29.779Z,6.90
2019-03-09T21:16:01.035Z,6.90
2019-03-09T21:18:29.570Z,6.80
2019-03-09T21:20:59.030Z,6.80
2019-03-09T21:23:27.560Z,6.70
2019-03-09T21:25:58.157Z,6.70
2019-03-09T21:28:29.093Z,6.70
2019-03-09T21:30:57.539Z,6.60
2019-03-09T21:33:28.396Z,6.50
2019-03-09T21:35:56.904Z,6.50
2019-03-09T21:38:25.429Z,6.40
2019-03-09T21:40:56.013Z,6.40
2019-03-09T21:43:26.960Z,6.40
2019-03-09T21:46:02.097Z,6.30
2019-03-09T21:48:30.551Z,6.30
2019-03-09T21:50:59.014Z,6.20
2019-03-09T21:53:31.623Z,6.20
2019-03-09T21:56:03.725Z,6.10
2019-03-09T21:58:32.252Z,6.10
2019-03-09T22:01:03.245Z,6.10
2019-03-09T22:03:31.691Z,6.10
2019-03-09T22:06:05.953Z,6.10
2019-03-09T22:08:34.019Z,6.00
2019-03-09T22:11:02.467Z,6.00
2019-03-09T22:13:33.753Z,5.90
2019-03-09T22:16:07.357Z,5.90
2019-03-09T22:18:36.562Z,5.80
2019-03-09T22:21:05.174Z,5.70
2019-03-09T22:23:43.502Z,5.70
2019-03-09T22:26:06.322Z,5.80
2019-03-09T22:28:34.840Z,5.80
2019-03-09T22:31:03.299Z,5.80
2019-03-09T22:33:35.149Z,5.80
2019-03-09T22:36:03.603Z,5.80
2019-03-09T22:39:14.390Z,5.70
2019-03-09T22:41:42.924Z,5.80
2019-03-09T22:44:12.986Z,5.70
2019-03-09T22:46:45.673Z,5.70
2019-03-09T22:49:14.133Z,5.70
2019-03-09T22:51:42.655Z,5.60
2019-03-09T22:54:13.580Z,5.70
2019-03-09T22:56:42.045Z,5.60
2019-03-09T22:59:13.314Z,5.50
2019-03-09T23:01:43.641Z,5.60
2019-03-09T23:04:12.101Z,5.60
2019-03-09T23:06:42.754Z,5.50
2019-03-09T23:09:13.917Z,5.60
2019-03-09T23:11:42.452Z,5.50
2019-03-09T23:14:13.230Z,5.50
2019-03-09T23:16:49.791Z,5.50
2019-03-09T23:19:21.465Z,5.50
2019-03-09T23:21:50.001Z,5.50
2019-03-09T23:24:18.458Z,5.50
2019-03-09T23:26:50.709Z,5.50
2019-03-09T23:29:19.246Z,5.50
2019-03-09T23:31:47.781Z,5.50
2019-03-09T23:34:18.521Z,5.40
2019-03-09T23:36:47.053Z,5.50
2019-03-09T23:39:19.985Z,5.50
2019-03-09T23:41:48.494Z,5.40
2019-03-09T23:44:18.778Z,5.30
2019-03-09T23:46:49.010Z,5.40
2019-03-09T23:49:17.460Z,5.40
2019-03-09T23:51:45.922Z,5.30
2019-03-09T23:54:18.374Z,5.30
2019-03-09T23:56:47.073Z,5.30
2019-03-09T23:59:15.516Z,5.30
